sensor_id;sensor_type;location;lat;lon;timestamp;temperature;humidity
70336;SHT31;57756;47.408;18.940;2023-04-01T00:01:58;9.34;98.30
70336;SHT31;57756;47.408;18.940;2023-04-01T00:07:35;9.32;98.44
70336;SHT31;57756;47.408;18.940;2023-04-01T00:10:02;9.28;98.50
70336;SHT31;57756;47.408;18.940;2023-04-01T00:12:27;9.31;98.19
70336;SHT31;57756;47.408;18.940;2023-04-01T00:14:53;9.31;98.55
70336;SHT31;57756;47.408;18.940;2023-04-01T00:17:18;9.32;98.33
70336;SHT31;57756;47.408;18.940;2023-04-01T00:19:44;9.32;98.58
70336;SHT31;57756;47.408;18.940;2023-04-01T00:22:09;9.28;98.26
70336;SHT31;57756;47.408;18.940;2023-04-01T00:24:37;9.25;98.49
70336;SHT31;57756;47.408;18.940;2023-04-01T00:27:03;9.24;98.52
70336;SHT31;57756;47.408;18.940;2023-04-01T00:29:28;9.21;99.05
70336;SHT31;57756;47.408;18.940;2023-04-01T00:31:56;9.24;98.66
70336;SHT31;57756;47.408;18.940;2023-04-01T00:34:22;9.24;98.76
70336;SHT31;57756;47.408;18.940;2023-04-01T00:36:49;9.22;98.62
70336;SHT31;57756;47.408;18.940;2023-04-01T00:39:15;9.22;98.58
70336;SHT31;57756;47.408;18.940;2023-04-01T00:41:41;9.22;98.68
70336;SHT31;57756;47.408;18.940;2023-04-01T00:44:22;9.24;98.73
70336;SHT31;57756;47.408;18.940;2023-04-01T00:46:49;9.19;99.17
70336;SHT31;57756;47.408;18.940;2023-04-01T00:49:16;9.19;98.73
70336;SHT31;57756;47.408;18.940;2023-04-01T00:51:44;9.18;98.68
70336;SHT31;57756;47.408;18.940;2023-04-01T00:54:12;9.19;98.84
70336;SHT31;57756;47.408;18.940;2023-04-01T00:56:44;9.17;98.43
70336;SHT31;57756;47.408;18.940;2023-04-01T00:59:14;9.15;98.73
70336;SHT31;57756;47.408;18.940;2023-04-01T01:01:41;9.12;98.99
70336;SHT31;57756;47.408;18.940;2023-04-01T01:04:06;9.12;99.03
70336;SHT31;57756;47.408;18.940;2023-04-01T01:11:43;9.08;98.58
70336;SHT31;57756;47.408;18.940;2023-04-01T01:16:44;9.07;98.95
70336;SHT31;57756;47.408;18.940;2023-04-01T01:19:36;9.05;98.94
70336;SHT31;57756;47.408;18.940;2023-04-01T01:27:39;9.05;99.01
70336;SHT31;57756;47.408;18.940;2023-04-01T01:33:02;9.03;99.14
70336;SHT31;57756;47.408;18.940;2023-04-01T01:35:36;9.04;99.32
70336;SHT31;57756;47.408;18.940;2023-04-01T01:38:06;8.98;99.36
70336;SHT31;57756;47.408;18.940;2023-04-01T01:40:34;8.97;99.51
70336;SHT31;57756;47.408;18.940;2023-04-01T01:43:05;9.00;99.47
70336;SHT31;57756;47.408;18.940;2023-04-01T01:45:34;8.98;99.55
70336;SHT31;57756;47.408;18.940;2023-04-01T01:48:02;8.98;99.56
70336;SHT31;57756;47.408;18.940;2023-04-01T01:50:30;8.98;99.42
70336;SHT31;57756;47.408;18.940;2023-04-01T01:53:01;8.94;99.53
70336;SHT31;57756;47.408;18.940;2023-04-01T01:55:36;8.94;99.43
70336;SHT31;57756;47.408;18.940;2023-04-01T01:58:09;8.94;99.50
70336;SHT31;57756;47.408;18.940;2023-04-01T02:00:37;8.96;99.36
70336;SHT31;57756;47.408;18.940;2023-04-01T02:03:03;8.94;99.12
70336;SHT31;57756;47.408;18.940;2023-04-01T02:05:30;8.92;99.45
70336;SHT31;57756;47.408;18.940;2023-04-01T02:08:13;8.91;99.35
70336;SHT31;57756;47.408;18.940;2023-04-01T02:10:43;8.91;99.12
70336;SHT31;57756;47.408;18.940;2023-04-01T02:13:17;8.88;99.16
70336;SHT31;57756;47.408;18.940;2023-04-01T02:15:46;8.88;99.31
70336;SHT31;57756;47.408;18.940;2023-04-01T02:18:14;8.87;99.09
70336;SHT31;57756;47.408;18.940;2023-04-01T02:20:40;8.85;98.98
70336;SHT31;57756;47.408;18.940;2023-04-01T02:23:07;8.81;98.84
70336;SHT31;57756;47.408;18.940;2023-04-01T02:25:35;8.80;98.92
70336;SHT31;57756;47.408;18.940;2023-04-01T02:28:04;8.83;99.32
70336;SHT31;57756;47.408;18.940;2023-04-01T02:30:33;8.81;98.98
70336;SHT31;57756;47.408;18.940;2023-04-01T02:32:59;8.78;99.22
70336;SHT31;57756;47.408;18.940;2023-04-01T02:35:26;8.76;98.66
70336;SHT31;57756;47.408;18.940;2023-04-01T02:37:53;8.70;98.46
70336;SHT31;57756;47.408;18.940;2023-04-01T02:40:19;8.70;98.68
70336;SHT31;57756;47.408;18.940;2023-04-01T02:42:44;8.66;98.85
70336;SHT31;57756;47.408;18.940;2023-04-01T02:45:11;8.59;98.58
70336;SHT31;57756;47.408;18.940;2023-04-01T02:47:37;8.54;98.44
70336;SHT31;57756;47.408;18.940;2023-04-01T02:50:03;8.49;98.77
70336;SHT31;57756;47.408;18.940;2023-04-01T02:52:29;8.50;98.39
70336;SHT31;57756;47.408;18.940;2023-04-01T02:54:55;8.46;98.42
70336;SHT31;57756;47.408;18.940;2023-04-01T02:57:21;8.38;98.60
70336;SHT31;57756;47.408;18.940;2023-04-01T02:59:47;8.38;98.49
70336;SHT31;57756;47.408;18.940;2023-04-01T03:02:13;8.35;98.75
70336;SHT31;57756;47.408;18.940;2023-04-01T03:04:39;8.35;98.77
70336;SHT31;57756;47.408;18.940;2023-04-01T03:07:04;8.35;99.09
70336;SHT31;57756;47.408;18.940;2023-04-01T03:09:30;8.31;98.87
70336;SHT31;57756;47.408;18.940;2023-04-01T03:11:56;8.29;98.71
70336;SHT31;57756;47.408;18.940;2023-04-01T03:14:21;8.28;98.91
70336;SHT31;57756;47.408;18.940;2023-04-01T03:16:46;8.26;98.64
70336;SHT31;57756;47.408;18.940;2023-04-01T03:19:12;8.28;98.60
70336;SHT31;57756;47.408;18.940;2023-04-01T03:21:37;8.21;98.34
70336;SHT31;57756;47.408;18.940;2023-04-01T03:24:03;8.11;98.44
70336;SHT31;57756;47.408;18.940;2023-04-01T03:26:29;8.09;98.40
70336;SHT31;57756;47.408;18.940;2023-04-01T03:28:54;8.04;98.16
70336;SHT31;57756;47.408;18.940;2023-04-01T03:31:20;7.95;98.17
70336;SHT31;57756;47.408;18.940;2023-04-01T03:33:46;7.94;98.05
70336;SHT31;57756;47.408;18.940;2023-04-01T03:36:12;7.90;98.13
70336;SHT31;57756;47.408;18.940;2023-04-01T03:38:41;7.83;98.60
70336;SHT31;57756;47.408;18.940;2023-04-01T03:41:07;7.77;97.89
70336;SHT31;57756;47.408;18.940;2023-04-01T03:43:36;7.73;97.92
70336;SHT31;57756;47.408;18.940;2023-04-01T03:46:01;7.71;98.08
70336;SHT31;57756;47.408;18.940;2023-04-01T03:48:27;7.67;98.05
70336;SHT31;57756;47.408;18.940;2023-04-01T03:50:53;7.57;98.35
70336;SHT31;57756;47.408;18.940;2023-04-01T03:53:18;7.60;98.59
70336;SHT31;57756;47.408;18.940;2023-04-01T03:55:44;7.57;98.44
70336;SHT31;57756;47.408;18.940;2023-04-01T03:58:10;7.60;98.67
70336;SHT31;57756;47.408;18.940;2023-04-01T04:00:35;7.57;98.51
70336;SHT31;57756;47.408;18.940;2023-04-01T04:03:01;7.53;98.53
70336;SHT31;57756;47.408;18.940;2023-04-01T04:05:27;7.47;98.58
70336;SHT31;57756;47.408;18.940;2023-04-01T04:07:53;7.47;98.74
70336;SHT31;57756;47.408;18.940;2023-04-01T04:10:19;7.43;98.35
70336;SHT31;57756;47.408;18.940;2023-04-01T04:12:45;7.42;98.30
70336;SHT31;57756;47.408;18.940;2023-04-01T04:15:10;7.40;98.60
70336;SHT31;57756;47.408;18.940;2023-04-01T04:17:36;7.35;98.27
70336;SHT31;57756;47.408;18.940;2023-04-01T04:20:02;7.30;98.43
70336;SHT31;57756;47.408;18.940;2023-04-01T04:22:28;7.26;98.60
70336;SHT31;57756;47.408;18.940;2023-04-01T04:24:53;7.26;98.51
70336;SHT31;57756;47.408;18.940;2023-04-01T04:27:19;7.25;98.68
70336;SHT31;57756;47.408;18.940;2023-04-01T04:29:45;7.19;98.51
70336;SHT31;57756;47.408;18.940;2023-04-01T04:32:10;7.16;98.87
70336;SHT31;57756;47.408;18.940;2023-04-01T04:34:36;7.12;99.10
70336;SHT31;57756;47.408;18.940;2023-04-01T04:37:01;7.15;98.87
70336;SHT31;57756;47.408;18.940;2023-04-01T04:39:27;7.16;99.21
70336;SHT31;57756;47.408;18.940;2023-04-01T04:41:52;7.18;99.18
70336;SHT31;57756;47.408;18.940;2023-04-01T04:44:18;7.19;99.28
70336;SHT31;57756;47.408;18.940;2023-04-01T04:46:43;7.22;98.99
70336;SHT31;57756;47.408;18.940;2023-04-01T04:49:09;7.20;98.96
70336;SHT31;57756;47.408;18.940;2023-04-01T04:51:34;7.22;98.89
70336;SHT31;57756;47.408;18.940;2023-04-01T04:54:02;7.29;99.17
70336;SHT31;57756;47.408;18.940;2023-04-01T04:56:28;7.35;99.14
70336;SHT31;57756;47.408;18.940;2023-04-01T04:58:53;7.43;99.15
70336;SHT31;57756;47.408;18.940;2023-04-01T05:01:19;7.45;99.31
70336;SHT31;57756;47.408;18.940;2023-04-01T05:03:45;7.54;98.99
70336;SHT31;57756;47.408;18.940;2023-04-01T05:06:12;7.69;98.88
70336;SHT31;57756;47.408;18.940;2023-04-01T05:08:39;7.80;98.68
70336;SHT31;57756;47.408;18.940;2023-04-01T05:11:07;7.91;98.55
70336;SHT31;57756;47.408;18.940;2023-04-01T05:13:35;8.06;97.86
70336;SHT31;57756;47.408;18.940;2023-04-01T05:16:00;8.28;97.68
70336;SHT31;57756;47.408;18.940;2023-04-01T05:18:26;8.45;97.40
70336;SHT31;57756;47.408;18.940;2023-04-01T05:20:52;8.63;97.25
70336;SHT31;57756;47.408;18.940;2023-04-01T05:23:19;8.83;96.63
70336;SHT31;57756;47.408;18.940;2023-04-01T05:25:50;8.94;95.36
70336;SHT31;57756;47.408;18.940;2023-04-01T05:28:18;9.17;95.00
70336;SHT31;57756;47.408;18.940;2023-04-01T05:30:45;9.22;94.69
70336;SHT31;57756;47.408;18.940;2023-04-01T05:33:11;9.38;94.07
70336;SHT31;57756;47.408;18.940;2023-04-01T05:35:37;9.53;94.12
70336;SHT31;57756;47.408;18.940;2023-04-01T05:38:03;9.67;93.47
70336;SHT31;57756;47.408;18.940;2023-04-01T05:40:29;9.79;93.17
70336;SHT31;57756;47.408;18.940;2023-04-01T05:42:55;9.90;93.58
70336;SHT31;57756;47.408;18.940;2023-04-01T05:45:21;10.00;92.55
70336;SHT31;57756;47.408;18.940;2023-04-01T05:47:46;10.17;91.98
70336;SHT31;57756;47.408;18.940;2023-04-01T05:50:12;10.27;91.43
70336;SHT31;57756;47.408;18.940;2023-04-01T05:52:38;10.31;91.07
70336;SHT31;57756;47.408;18.940;2023-04-01T05:55:04;10.44;91.49
70336;SHT31;57756;47.408;18.940;2023-04-01T05:57:31;10.50;89.90
70336;SHT31;57756;47.408;18.940;2023-04-01T05:59:57;10.63;90.89
70336;SHT31;57756;47.408;18.940;2023-04-01T06:02:22;10.70;90.11
70336;SHT31;57756;47.408;18.940;2023-04-01T06:04:48;10.69;89.91
70336;SHT31;57756;47.408;18.940;2023-04-01T06:07:15;10.72;89.75
70336;SHT31;57756;47.408;18.940;2023-04-01T06:09:42;10.79;89.17
70336;SHT31;57756;47.408;18.940;2023-04-01T06:22:35;11.10;87.51
70336;SHT31;57756;47.408;18.940;2023-04-01T06:30:43;11.36;87.16
70336;SHT31;57756;47.408;18.940;2023-04-01T06:38:55;11.66;87.08
70336;SHT31;57756;47.408;18.940;2023-04-01T06:50:26;12.21;83.20
70336;SHT31;57756;47.408;18.940;2023-04-01T06:55:39;12.45;82.89
70336;SHT31;57756;47.408;18.940;2023-04-01T07:01:00;12.62;82.85
70336;SHT31;57756;47.408;18.940;2023-04-01T07:03:40;12.62;80.15
70336;SHT31;57756;47.408;18.940;2023-04-01T07:06:14;12.86;81.92
70336;SHT31;57756;47.408;18.940;2023-04-01T07:08:43;13.02;80.20
70336;SHT31;57756;47.408;18.940;2023-04-01T07:11:12;13.13;80.10
70336;SHT31;57756;47.408;18.940;2023-04-01T07:13:48;13.30;79.55
70336;SHT31;57756;47.408;18.940;2023-04-01T07:16:59;13.39;78.09
70336;SHT31;57756;47.408;18.940;2023-04-01T07:19:16;13.53;77.22
70336;SHT31;57756;47.408;18.940;2023-04-01T07:21:50;13.77;76.61
70336;SHT31;57756;47.408;18.940;2023-04-01T07:24:29;13.85;76.54
70336;SHT31;57756;47.408;18.940;2023-04-01T07:26:57;14.08;77.06
70336;SHT31;57756;47.408;18.940;2023-04-01T07:29:25;14.13;75.49
70336;SHT31;57756;47.408;18.940;2023-04-01T07:35:04;14.18;76.03
70336;SHT31;57756;47.408;18.940;2023-04-01T07:51:34;15.86;72.02
70336;SHT31;57756;47.408;18.940;2023-04-01T07:54:08;16.04;72.41
70336;SHT31;57756;47.408;18.940;2023-04-01T07:59:24;16.12;68.77
70336;SHT31;57756;47.408;18.940;2023-04-01T08:02:06;16.04;68.57
70336;SHT31;57756;47.408;18.940;2023-04-01T08:05:17;15.83;69.37
70336;SHT31;57756;47.408;18.940;2023-04-01T08:08:06;15.42;70.54
70336;SHT31;57756;47.408;18.940;2023-04-01T08:15:56;14.68;71.39
70336;SHT31;57756;47.408;18.940;2023-04-01T08:18:46;14.87;72.58
70336;SHT31;57756;47.408;18.940;2023-04-01T08:21:28;15.38;70.22
70336;SHT31;57756;47.408;18.940;2023-04-01T08:23:57;15.54;69.72
70336;SHT31;57756;47.408;18.940;2023-04-01T08:26:30;15.67;68.73
70336;SHT31;57756;47.408;18.940;2023-04-01T08:29:06;15.67;69.51
70336;SHT31;57756;47.408;18.940;2023-04-01T08:34:24;15.67;69.22
70336;SHT31;57756;47.408;18.940;2023-04-01T08:36:57;15.43;67.95
70336;SHT31;57756;47.408;18.940;2023-04-01T08:39:35;15.08;67.95
70336;SHT31;57756;47.408;18.940;2023-04-01T08:45:02;15.05;68.23
70336;SHT31;57756;47.408;18.940;2023-04-01T08:48:35;15.26;69.08
70336;SHT31;57756;47.408;18.940;2023-04-01T08:56:20;15.36;69.19
70336;SHT31;57756;47.408;18.940;2023-04-01T08:59:03;15.31;69.35
70336;SHT31;57756;47.408;18.940;2023-04-01T09:12:34;17.00;66.00
70336;SHT31;57756;47.408;18.940;2023-04-01T09:15:29;17.27;64.70
70336;SHT31;57756;47.408;18.940;2023-04-01T09:20:42;16.44;66.04
70336;SHT31;57756;47.408;18.940;2023-04-01T09:28:42;15.44;67.57
70336;SHT31;57756;47.408;18.940;2023-04-01T09:34:30;15.44;67.24
70336;SHT31;57756;47.408;18.940;2023-04-01T09:37:30;15.49;66.68
70336;SHT31;57756;47.408;18.940;2023-04-01T09:45:48;15.32;68.45
70336;SHT31;57756;47.408;18.940;2023-04-01T10:00:04;14.34;69.10
70336;SHT31;57756;47.408;18.940;2023-04-01T10:10:55;14.81;69.49
70336;SHT31;57756;47.408;18.940;2023-04-01T10:13:42;14.63;68.14
70336;SHT31;57756;47.408;18.940;2023-04-01T10:33:46;15.08;68.01
70336;SHT31;57756;47.408;18.940;2023-04-01T10:53:56;15.36;67.31
70336;SHT31;57756;47.408;18.940;2023-04-01T10:56:45;15.59;66.76
70336;SHT31;57756;47.408;18.940;2023-04-01T11:13:42;15.71;66.09
70336;SHT31;57756;47.408;18.940;2023-04-01T11:22:30;15.93;66.51
70336;SHT31;57756;47.408;18.940;2023-04-01T11:25:18;16.08;64.24
70336;SHT31;57756;47.408;18.940;2023-04-01T11:33:30;16.77;63.59
70336;SHT31;57756;47.408;18.940;2023-04-01T11:36:59;16.67;62.36
70336;SHT31;57756;47.408;18.940;2023-04-01T11:44:19;16.93;63.81
70336;SHT31;57756;47.408;18.940;2023-04-01T11:47:03;16.67;63.02
70336;SHT31;57756;47.408;18.940;2023-04-01T11:50:23;16.55;62.25
70336;SHT31;57756;47.408;18.940;2023-04-01T11:53:38;16.55;63.26
70336;SHT31;57756;47.408;18.940;2023-04-01T11:59:09;16.38;63.51
70336;SHT31;57756;47.408;18.940;2023-04-01T12:12:39;16.59;62.75
70336;SHT31;57756;47.408;18.940;2023-04-01T12:15:32;16.44;62.82
70336;SHT31;57756;47.408;18.940;2023-04-01T12:18:32;16.49;62.48
70336;SHT31;57756;47.408;18.940;2023-04-01T12:24:27;16.70;62.36
70336;SHT31;57756;47.408;18.940;2023-04-01T12:27:16;16.70;61.03
70336;SHT31;57756;47.408;18.940;2023-04-01T12:32:39;16.81;62.23
70336;SHT31;57756;47.408;18.940;2023-04-01T12:35:25;16.97;61.04
70336;SHT31;57756;47.408;18.940;2023-04-01T12:38:28;16.93;61.51
70336;SHT31;57756;47.408;18.940;2023-04-01T12:41:09;17.03;60.92
70336;SHT31;57756;47.408;18.940;2023-04-01T12:46:24;16.65;60.82
70336;SHT31;57756;47.408;18.940;2023-04-01T12:51:47;16.19;61.82
70336;SHT31;57756;47.408;18.940;2023-04-01T12:55:03;16.32;62.44
70336;SHT31;57756;47.408;18.940;2023-04-01T13:00:31;16.44;62.56
70336;SHT31;57756;47.408;18.940;2023-04-01T13:09:00;16.52;63.02
70336;SHT31;57756;47.408;18.940;2023-04-01T13:20:06;16.74;61.77
70336;SHT31;57756;47.408;18.940;2023-04-01T13:25:14;16.79;61.01
70336;SHT31;57756;47.408;18.940;2023-04-01T13:27:44;16.93;61.51
70336;SHT31;57756;47.408;18.940;2023-04-01T13:30:18;16.87;61.86
70336;SHT31;57756;47.408;18.940;2023-04-01T13:40:51;16.42;62.33
70336;SHT31;57756;47.408;18.940;2023-04-01T13:43:37;16.28;62.68
70336;SHT31;57756;47.408;18.940;2023-04-01T13:56:48;15.56;63.22
70336;SHT31;57756;47.408;18.940;2023-04-01T13:59:29;15.35;64.57
70336;SHT31;57756;47.408;18.940;2023-04-01T14:02:33;15.09;67.02
70336;SHT31;57756;47.408;18.940;2023-04-01T14:08:42;14.41;72.31
70336;SHT31;57756;47.408;18.940;2023-04-01T14:11:35;14.36;71.64
70336;SHT31;57756;47.408;18.940;2023-04-01T14:47:50;14.60;67.52
70336;SHT31;57756;47.408;18.940;2023-04-01T14:50:21;14.64;68.29
70336;SHT31;57756;47.408;18.940;2023-04-01T14:55:31;14.95;67.83
70336;SHT31;57756;47.408;18.940;2023-04-01T14:58:00;15.12;67.90
70336;SHT31;57756;47.408;18.940;2023-04-01T15:00:52;15.18;66.71
70336;SHT31;57756;47.408;18.940;2023-04-01T15:03:51;15.28;65.80
70336;SHT31;57756;47.408;18.940;2023-04-01T15:37:08;14.77;69.12
70336;SHT31;57756;47.408;18.940;2023-04-01T15:42:31;14.81;65.39
70336;SHT31;57756;47.408;18.940;2023-04-01T15:45:31;14.80;64.34
70336;SHT31;57756;47.408;18.940;2023-04-01T15:57:03;14.70;64.03
70336;SHT31;57756;47.408;18.940;2023-04-01T16:02:23;14.53;64.05
70336;SHT31;57756;47.408;18.940;2023-04-01T16:20:58;14.47;64.86
70336;SHT31;57756;47.408;18.940;2023-04-01T16:23:48;14.41;65.29
70336;SHT31;57756;47.408;18.940;2023-04-01T16:26:23;14.46;65.53
70336;SHT31;57756;47.408;18.940;2023-04-01T16:29:12;14.46;65.37
70336;SHT31;57756;47.408;18.940;2023-04-01T16:34:39;14.33;64.35
70336;SHT31;57756;47.408;18.940;2023-04-01T16:43:12;14.08;65.90
70336;SHT31;57756;47.408;18.940;2023-04-01T16:45:46;14.04;66.52
70336;SHT31;57756;47.408;18.940;2023-04-01T16:48:36;13.99;66.19
70336;SHT31;57756;47.408;18.940;2023-04-01T16:51:16;13.83;67.44
70336;SHT31;57756;47.408;18.940;2023-04-01T16:53:43;13.81;67.18
70336;SHT31;57756;47.408;18.940;2023-04-01T16:56:25;13.72;67.78
70336;SHT31;57756;47.408;18.940;2023-04-01T17:02:08;13.57;68.08
70336;SHT31;57756;47.408;18.940;2023-04-01T17:04:45;13.44;69.19
70336;SHT31;57756;47.408;18.940;2023-04-01T17:12:44;13.24;70.25
70336;SHT31;57756;47.408;18.940;2023-04-01T17:15:34;13.13;70.77
70336;SHT31;57756;47.408;18.940;2023-04-01T17:21:05;12.97;70.38
70336;SHT31;57756;47.408;18.940;2023-04-01T17:23:37;12.85;70.60
70336;SHT31;57756;47.408;18.940;2023-04-01T17:26:26;12.78;70.79
70336;SHT31;57756;47.408;18.940;2023-04-01T17:39:41;12.31;74.10
70336;SHT31;57756;47.408;18.940;2023-04-01T17:42:42;12.19;75.64
70336;SHT31;57756;47.408;18.940;2023-04-01T17:45:24;12.02;76.05
70336;SHT31;57756;47.408;18.940;2023-04-01T17:48:16;12.02;75.75
70336;SHT31;57756;47.408;18.940;2023-04-01T17:51:05;11.90;77.05
70336;SHT31;57756;47.408;18.940;2023-04-01T17:53:39;11.78;77.09
70336;SHT31;57756;47.408;18.940;2023-04-01T18:04:24;11.57;77.47
70336;SHT31;57756;47.408;18.940;2023-04-01T18:07:02;11.51;77.33
70336;SHT31;57756;47.408;18.940;2023-04-01T18:12:27;11.42;77.49
70336;SHT31;57756;47.408;18.940;2023-04-01T18:17:54;11.23;78.88
70336;SHT31;57756;47.408;18.940;2023-04-01T18:25:41;11.04;79.30
70336;SHT31;57756;47.408;18.940;2023-04-01T18:33:50;10.84;80.40
70336;SHT31;57756;47.408;18.940;2023-04-01T18:39:35;10.72;80.17
70336;SHT31;57756;47.408;18.940;2023-04-01T18:55:49;10.50;80.69
70336;SHT31;57756;47.408;18.940;2023-04-01T18:59:03;10.49;80.96
70336;SHT31;57756;47.408;18.940;2023-04-01T19:01:34;10.50;80.93
70336;SHT31;57756;47.408;18.940;2023-04-01T19:07:19;10.50;80.35
70336;SHT31;57756;47.408;18.940;2023-04-01T19:09:47;10.46;80.72
70336;SHT31;57756;47.408;18.940;2023-04-01T19:20:37;10.35;80.54
70336;SHT31;57756;47.408;18.940;2023-04-01T19:23:47;10.37;80.56
70336;SHT31;57756;47.408;18.940;2023-04-01T19:26:37;10.39;80.78
70336;SHT31;57756;47.408;18.940;2023-04-01T19:31:42;10.44;80.49
70336;SHT31;57756;47.408;18.940;2023-04-01T19:37:01;10.48;80.45
70336;SHT31;57756;47.408;18.940;2023-04-01T19:39:37;10.48;80.22
70336;SHT31;57756;47.408;18.940;2023-04-01T19:48:15;10.46;80.62
70336;SHT31;57756;47.408;18.940;2023-04-01T19:50:57;10.42;80.76
70336;SHT31;57756;47.408;18.940;2023-04-01T19:58:36;10.35;81.33
70336;SHT31;57756;47.408;18.940;2023-04-01T20:01:12;10.30;81.72
70336;SHT31;57756;47.408;18.940;2023-04-01T20:06:43;10.31;81.56
70336;SHT31;57756;47.408;18.940;2023-04-01T20:14:49;10.27;81.89
70336;SHT31;57756;47.408;18.940;2023-04-01T20:17:21;10.25;81.84
70336;SHT31;57756;47.408;18.940;2023-04-01T20:25:16;10.24;82.06
70336;SHT31;57756;47.408;18.940;2023-04-01T20:27:51;10.17;82.40
70336;SHT31;57756;47.408;18.940;2023-04-01T20:33:25;10.11;82.49
70336;SHT31;57756;47.408;18.940;2023-04-01T20:44:41;9.77;83.65
70336;SHT31;57756;47.408;18.940;2023-04-01T20:47:39;9.67;83.93
70336;SHT31;57756;47.408;18.940;2023-04-01T20:50:39;9.60;84.27
70336;SHT31;57756;47.408;18.940;2023-04-01T21:05:08;9.31;84.24
70336;SHT31;57756;47.408;18.940;2023-04-01T21:21:40;9.08;82.84
70336;SHT31;57756;47.408;18.940;2023-04-01T21:24:28;9.18;81.80
70336;SHT31;57756;47.408;18.940;2023-04-01T21:30:30;9.29;81.21
70336;SHT31;57756;47.408;18.940;2023-04-01T21:44:20;9.45;81.09
70336;SHT31;57756;47.408;18.940;2023-04-01T21:52:30;9.47;80.63
70336;SHT31;57756;47.408;18.940;2023-04-01T22:00:58;9.36;81.59
70336;SHT31;57756;47.408;18.940;2023-04-01T22:03:43;9.39;81.09
70336;SHT31;57756;47.408;18.940;2023-04-01T22:06:32;9.32;81.66
70336;SHT31;57756;47.408;18.940;2023-04-01T22:09:08;9.32;81.77
70336;SHT31;57756;47.408;18.940;2023-04-01T22:16:58;9.38;81.83
70336;SHT31;57756;47.408;18.940;2023-04-01T22:19:56;9.36;81.78
70336;SHT31;57756;47.408;18.940;2023-04-01T22:28:08;9.26;82.38
70336;SHT31;57756;47.408;18.940;2023-04-01T22:30:51;9.28;82.78
70336;SHT31;57756;47.408;18.940;2023-04-01T22:45:20;9.43;82.53
70336;SHT31;57756;47.408;18.940;2023-04-01T22:50:25;9.35;83.09
70336;SHT31;57756;47.408;18.940;2023-04-01T22:53:06;9.39;82.80
70336;SHT31;57756;47.408;18.940;2023-04-01T22:55:35;9.43;82.78
70336;SHT31;57756;47.408;18.940;2023-04-01T23:01:05;9.38;83.08
70336;SHT31;57756;47.408;18.940;2023-04-01T23:03:34;9.35;83.31
70336;SHT31;57756;47.408;18.940;2023-04-01T23:06:03;9.31;83.42
70336;SHT31;57756;47.408;18.940;2023-04-01T23:17:22;9.07;83.98
70336;SHT31;57756;47.408;18.940;2023-04-01T23:23:26;9.01;84.18
70336;SHT31;57756;47.408;18.940;2023-04-01T23:35:54;8.94;84.81
70336;SHT31;57756;47.408;18.940;2023-04-01T23:38:25;8.90;84.98
70336;SHT31;57756;47.408;18.940;2023-04-01T23:40:53;8.91;84.92
70336;SHT31;57756;47.408;18.940;2023-04-01T23:43:31;8.85;85.31
70336;SHT31;57756;47.408;18.940;2023-04-01T23:46:01;8.91;84.94
70336;SHT31;57756;47.408;18.940;2023-04-01T23:48:40;8.83;85.51
70336;SHT31;57756;47.408;18.940;2023-04-01T23:51:36;8.77;85.85
70336;SHT31;57756;47.408;18.940;2023-04-01T23:54:29;8.78;85.94
70336;SHT31;57756;47.408;18.940;2023-04-01T23:56:57;8.77;86.06
70336;SHT31;57756;47.408;18.940;2023-04-01T23:59:28;8.88;85.85
